createdAt,value
2022-10-29T00:00:39.590Z,13.80
2022-10-29T00:03:06.508Z,13.80
2022-10-29T00:05:33.765Z,13.60
2022-10-29T00:08:00.843Z,13.70
2022-10-29T00:10:28.033Z,13.60
2022-10-29T00:12:55.002Z,13.60
2022-10-29T00:15:22.020Z,13.50
2022-10-29T00:17:48.875Z,13.50
2022-10-29T00:20:15.821Z,13.70
2022-10-29T00:22:42.643Z,13.50
2022-10-29T00:25:09.782Z,13.60
2022-10-29T00:27:36.645Z,13.60
2022-10-29T00:30:04.303Z,13.60
2022-10-29T00:32:31.142Z,13.60
2022-10-29T00:39:23.865Z,13.70
2022-10-29T00:41:50.721Z,15.50
2022-10-29T00:44:20.576Z,13.70
2022-10-29T00:47:18.585Z,13.70
2022-10-29T00:49:47.427Z,13.70
2022-10-29T00:52:14.800Z,13.60
2022-10-29T00:54:42.680Z,13.80
2022-10-29T00:57:39.708Z,14.90
2022-10-29T01:00:07.215Z,13.60
2022-10-29T01:02:34.739Z,13.60
2022-10-29T01:05:03.036Z,14.30
2022-10-29T01:07:29.834Z,14.80
2022-10-29T01:09:56.640Z,13.80
2022-10-29T01:12:42.199Z,14.60
2022-10-29T01:15:17.865Z,15.90
2022-10-29T01:18:05.330Z,14.00
2022-10-29T01:20:53.530Z,14.00
2022-10-29T01:23:32.649Z,14.10
2022-10-29T01:26:21.166Z,14.20
2022-10-29T01:29:07.274Z,14.20
2022-10-29T01:31:35.719Z,14.20
2022-10-29T01:34:25.872Z,14.20
2022-10-29T01:37:02.731Z,14.20
2022-10-29T01:39:58.486Z,14.50
2022-10-29T01:42:39.050Z,14.30
2022-10-29T01:45:18.078Z,14.30
2022-10-29T01:47:49.811Z,14.30
2022-10-29T01:50:18.697Z,14.30
2022-10-29T01:52:45.524Z,14.40
2022-10-29T01:55:30.014Z,14.40
2022-10-29T01:57:57.329Z,14.40
2022-10-29T02:00:24.551Z,14.40
2022-10-29T02:03:13.386Z,14.40
2022-10-29T02:05:47.425Z,14.40
2022-10-29T02:08:21.208Z,14.40
2022-10-29T02:11:00.625Z,14.30
2022-10-29T02:13:31.728Z,14.30
2022-10-29T02:15:58.609Z,14.20
2022-10-29T02:18:25.449Z,15.80
2022-10-29T02:20:52.359Z,14.20
2022-10-29T02:23:19.263Z,15.50
2022-10-29T02:25:46.190Z,14.10
2022-10-29T02:28:13.303Z,14.10
2022-10-29T02:30:40.230Z,14.10
2022-10-29T02:33:07.163Z,14.10
2022-10-29T02:35:34.049Z,15.10
2022-10-29T02:38:00.915Z,14.00
2022-10-29T02:40:27.765Z,13.90
2022-10-29T02:42:54.961Z,15.20
2022-10-29T02:45:22.137Z,15.50
2022-10-29T02:47:48.972Z,13.80
2022-10-29T02:50:15.970Z,13.80
2022-10-29T02:52:42.831Z,13.70
2022-10-29T02:55:09.848Z,13.70
2022-10-29T02:57:36.694Z,13.70
2022-10-29T03:00:04.418Z,13.60
2022-10-29T03:02:31.307Z,13.60
2022-10-29T03:04:58.196Z,13.60
2022-10-29T03:07:25.063Z,13.60
2022-10-29T03:09:51.944Z,13.60
2022-10-29T03:12:18.791Z,16.10
2022-10-29T03:14:45.652Z,13.50
2022-10-29T03:17:12.554Z,13.50
2022-10-29T03:19:39.395Z,13.40
2022-10-29T03:22:06.249Z,13.40
2022-10-29T03:24:33.123Z,14.50
2022-10-29T03:26:59.916Z,13.40
2022-10-29T03:29:26.768Z,13.30
2022-10-29T03:31:53.654Z,13.40
2022-10-29T03:34:20.514Z,13.30
2022-10-29T03:36:47.341Z,13.30
2022-10-29T03:39:14.206Z,13.30
2022-10-29T03:41:41.063Z,13.20
2022-10-29T03:44:07.915Z,13.20
2022-10-29T03:46:34.776Z,15.00
2022-10-29T03:49:01.668Z,13.20
2022-10-29T03:51:28.527Z,13.10
2022-10-29T03:53:55.387Z,13.20
2022-10-29T03:56:22.247Z,13.20
2022-10-29T03:58:49.099Z,13.20
2022-10-29T04:01:15.951Z,13.20
2022-10-29T04:03:44.059Z,13.20
2022-10-29T04:06:14.850Z,13.30
2022-10-29T04:08:42.113Z,13.30
2022-10-29T04:11:12.576Z,13.30
2022-10-29T04:13:39.684Z,13.70
2022-10-29T04:16:06.722Z,15.10
2022-10-29T04:18:33.590Z,13.20
2022-10-29T04:29:24.482Z,13.50
2022-10-29T04:31:51.401Z,13.10
2022-10-29T04:34:18.396Z,13.00
2022-10-29T04:36:45.199Z,13.00
2022-10-29T04:39:12.079Z,13.90
2022-10-29T04:41:38.953Z,13.00
2022-10-29T04:44:05.851Z,13.00
2022-10-29T04:46:32.665Z,13.00
2022-10-29T04:48:59.777Z,15.10
2022-10-29T04:51:26.908Z,13.00
2022-10-29T04:53:53.745Z,13.00
2022-10-29T04:56:20.589Z,12.90
2022-10-29T04:58:50.160Z,13.50
2022-10-29T05:01:17.091Z,13.40
2022-10-29T05:03:44.074Z,12.90
2022-10-29T05:06:10.991Z,13.80
2022-10-29T05:08:37.813Z,12.90
2022-10-29T05:11:05.201Z,12.90
2022-10-29T05:13:32.316Z,13.00
2022-10-29T05:15:59.148Z,13.00
2022-10-29T05:18:26.022Z,13.20
2022-10-29T05:20:54.189Z,13.00
2022-10-29T05:23:21.106Z,15.40
2022-10-29T05:25:52.308Z,15.00
2022-10-29T05:28:20.947Z,14.20
2022-10-29T05:30:48.471Z,13.00
2022-10-29T05:33:16.920Z,13.80
2022-10-29T05:35:43.926Z,13.00
2022-10-29T05:38:11.089Z,13.00
2022-10-29T05:40:38.005Z,13.00
2022-10-29T05:43:04.858Z,13.00
2022-10-29T05:45:31.823Z,13.00
2022-10-29T05:48:02.542Z,14.00
2022-10-29T05:50:29.693Z,13.00
2022-10-29T05:53:00.991Z,13.00
2022-10-29T05:55:28.209Z,13.00
2022-10-29T05:57:58.913Z,13.00
2022-10-29T06:00:26.539Z,14.20
2022-10-29T06:02:53.682Z,13.00
2022-10-29T06:05:20.695Z,13.70
2022-10-29T06:07:52.786Z,13.00
2022-10-29T06:10:19.688Z,13.00
2022-10-29T06:12:46.589Z,13.00
2022-10-29T06:15:13.482Z,13.00
2022-10-29T06:17:44.009Z,13.10
2022-10-29T06:20:11.538Z,13.00
2022-10-29T06:22:38.353Z,13.10
2022-10-29T06:25:05.672Z,13.10
2022-10-29T06:27:32.516Z,13.10
2022-10-29T06:29:59.386Z,13.80
2022-10-29T06:32:26.242Z,13.10
2022-10-29T06:34:53.121Z,13.10
2022-10-29T06:37:19.972Z,13.10
2022-10-29T06:39:46.846Z,13.10
2022-10-29T06:42:13.680Z,13.10
2022-10-29T06:44:40.551Z,13.10
2022-10-29T06:47:07.445Z,13.10
2022-10-29T06:49:34.317Z,13.10
2022-10-29T06:52:01.174Z,13.20
2022-10-29T06:54:28.044Z,13.30
2022-10-29T06:56:54.994Z,13.30
2022-10-29T06:59:23.531Z,13.40
2022-10-29T07:01:50.389Z,13.30
2022-10-29T07:04:18.568Z,13.50
2022-10-29T07:06:45.494Z,13.50
2022-10-29T07:09:12.404Z,13.50
2022-10-29T07:11:39.606Z,13.50
2022-10-29T07:14:08.518Z,13.60
2022-10-29T07:16:35.739Z,14.00
2022-10-29T07:19:03.776Z,13.80
2022-10-29T07:21:30.655Z,13.80
2022-10-29T07:23:57.565Z,13.90
2022-10-29T07:26:24.435Z,14.00
2022-10-29T07:28:51.337Z,14.10
2022-10-29T07:31:18.243Z,14.20
2022-10-29T07:33:45.085Z,14.20
2022-10-29T07:36:11.941Z,14.30
2022-10-29T07:38:38.799Z,14.40
2022-10-29T07:41:05.721Z,14.40
2022-10-29T07:43:32.579Z,14.50
2022-10-29T07:45:59.397Z,14.50
2022-10-29T07:48:26.301Z,14.60
2022-10-29T07:50:53.208Z,14.70
2022-10-29T07:53:20.050Z,14.90
2022-10-29T07:55:53.300Z,14.90
2022-10-29T07:58:20.276Z,15.00
2022-10-29T08:00:47.289Z,15.20
2022-10-29T08:03:14.190Z,15.30
2022-10-29T08:05:42.816Z,15.40
2022-10-29T08:08:10.139Z,15.60
2022-10-29T08:10:37.295Z,15.70
2022-10-29T08:13:04.986Z,15.80
2022-10-29T08:15:32.322Z,15.80
2022-10-29T08:17:59.389Z,15.90
2022-10-29T08:20:27.401Z,16.00
2022-10-29T08:22:54.548Z,16.20
2022-10-29T08:25:21.683Z,16.40
2022-10-29T08:28:01.830Z,16.70
2022-10-29T08:30:28.778Z,17.10
2022-10-29T08:32:55.968Z,17.50
2022-10-29T08:35:23.073Z,17.80
2022-10-29T08:37:49.977Z,18.20
2022-10-29T08:40:25.019Z,18.40
2022-10-29T08:43:15.853Z,18.60
2022-10-29T08:45:47.013Z,18.80
2022-10-29T08:48:30.032Z,19.00
2022-10-29T08:51:13.529Z,19.00
2022-10-29T08:53:54.189Z,19.10
2022-10-29T08:56:37.108Z,19.10
2022-10-29T08:59:11.987Z,19.30
2022-10-29T09:01:38.904Z,19.40
2022-10-29T09:04:25.792Z,19.50
2022-10-29T09:07:20.655Z,19.70
2022-10-29T09:10:36.378Z,20.00
2022-10-29T09:13:32.204Z,20.50
2022-10-29T09:16:20.272Z,20.40
2022-10-29T09:18:47.815Z,20.50
2022-10-29T09:21:32.625Z,20.60
2022-10-29T09:24:21.041Z,20.60
2022-10-29T09:26:54.151Z,20.70
2022-10-29T09:29:24.173Z,20.70
2022-10-29T09:31:55.531Z,21.00
2022-10-29T09:34:46.847Z,21.20
2022-10-29T09:37:42.414Z,21.40
2022-10-29T09:40:30.344Z,21.40
2022-10-29T09:42:58.439Z,21.50
2022-10-29T09:45:46.117Z,21.40
2022-10-29T09:48:20.344Z,21.50
2022-10-29T09:50:56.055Z,21.40
2022-10-29T09:53:22.937Z,21.40
2022-10-29T09:55:53.720Z,21.50
2022-10-29T09:58:25.694Z,21.50
2022-10-29T10:00:53.249Z,21.50
2022-10-29T10:03:45.793Z,21.60
2022-10-29T10:06:14.507Z,21.60
2022-10-29T10:09:03.859Z,21.70
2022-10-29T10:11:40.969Z,21.70
2022-10-29T10:14:18.288Z,21.80
2022-10-29T10:16:45.093Z,21.80
2022-10-29T10:19:28.614Z,21.90
2022-10-29T10:22:04.962Z,22.00
2022-10-29T10:24:36.120Z,19.60
2022-10-29T10:27:18.292Z,22.10
2022-10-29T10:30:07.259Z,22.10
2022-10-29T10:32:34.220Z,22.20
2022-10-29T10:35:01.080Z,22.30
2022-10-29T10:37:27.967Z,22.30
2022-10-29T10:40:00.186Z,22.30
2022-10-29T10:42:37.224Z,22.30
2022-10-29T10:45:15.374Z,22.20
2022-10-29T10:47:54.249Z,22.10
2022-10-29T10:50:29.377Z,22.00
2022-10-29T10:52:58.532Z,21.90
2022-10-29T10:55:33.277Z,21.80
2022-10-29T10:58:04.749Z,21.80
2022-10-29T11:00:39.845Z,21.80
2022-10-29T11:03:14.152Z,21.80
2022-10-29T11:05:56.989Z,22.00
2022-10-29T11:08:40.400Z,22.10
2022-10-29T11:11:16.549Z,22.20
2022-10-29T11:13:43.457Z,22.30
2022-10-29T11:16:33.515Z,22.30
2022-10-29T11:19:01.616Z,22.50
2022-10-29T11:21:31.486Z,22.60
2022-10-29T11:24:26.150Z,22.60
2022-10-29T11:27:02.504Z,22.70
2022-10-29T11:29:48.979Z,22.80
2022-10-29T11:32:23.887Z,22.90
2022-10-29T11:35:04.545Z,23.00
2022-10-29T11:37:59.150Z,23.10
2022-10-29T11:40:41.420Z,23.10
2022-10-29T11:43:13.679Z,23.10
2022-10-29T11:45:49.678Z,23.20
2022-10-29T11:48:26.278Z,23.20
2022-10-29T11:51:07.637Z,23.20
2022-10-29T11:53:40.587Z,23.20
2022-10-29T11:56:22.867Z,23.40
2022-10-29T11:59:15.119Z,23.50
2022-10-29T12:01:48.128Z,23.50
2022-10-29T12:04:33.188Z,23.50
2022-10-29T12:07:19.027Z,23.60
2022-10-29T12:09:52.833Z,23.70
2022-10-29T12:12:25.007Z,23.70
2022-10-29T12:15:04.427Z,23.80
2022-10-29T12:17:35.627Z,23.80
2022-10-29T12:20:17.477Z,23.70
2022-10-29T12:22:48.223Z,23.80
2022-10-29T12:25:21.470Z,23.90
2022-10-29T12:27:51.392Z,23.90
2022-10-29T12:30:18.613Z,22.80
2022-10-29T12:33:09.949Z,23.90
2022-10-29T12:35:47.202Z,23.90
2022-10-29T12:38:17.098Z,23.90
2022-10-29T12:40:44.910Z,23.90
2022-10-29T12:43:31.824Z,24.00
2022-10-29T12:46:26.805Z,24.00
2022-10-29T12:49:02.689Z,24.00
2022-10-29T12:51:49.044Z,23.90
2022-10-29T12:54:34.032Z,24.00
2022-10-29T12:57:18.824Z,24.00
2022-10-29T12:59:45.734Z,24.00
2022-10-29T13:02:32.354Z,24.00
2022-10-29T13:05:11.194Z,24.00
2022-10-29T13:07:47.253Z,23.90
2022-10-29T13:10:27.160Z,23.90
2022-10-29T13:12:53.967Z,24.00
2022-10-29T13:15:24.796Z,24.00
2022-10-29T13:17:52.045Z,24.00
2022-10-29T13:20:36.839Z,24.10
2022-10-29T13:23:06.601Z,24.20
2022-10-29T13:25:37.368Z,24.20
2022-10-29T13:28:10.354Z,24.30
2022-10-29T13:30:38.413Z,24.30
2022-10-29T13:33:20.699Z,24.40
2022-10-29T13:35:54.835Z,24.50
2022-10-29T13:38:51.781Z,24.50
2022-10-29T13:41:42.813Z,24.50
2022-10-29T13:44:19.189Z,24.60
2022-10-29T13:47:02.788Z,24.70
2022-10-29T13:49:45.695Z,24.80
2022-10-29T13:52:19.080Z,24.80
2022-10-29T13:55:07.817Z,24.80
2022-10-29T13:57:50.833Z,24.60
2022-10-29T14:00:19.440Z,24.60
2022-10-29T14:03:19.274Z,24.60
2022-10-29T14:05:56.273Z,24.60
2022-10-29T14:08:40.661Z,24.50
2022-10-29T14:11:14.647Z,24.40
2022-10-29T14:13:53.232Z,24.30
2022-10-29T14:16:24.815Z,24.30
2022-10-29T14:18:51.794Z,24.20
2022-10-29T14:21:21.754Z,24.20
2022-10-29T14:24:02.354Z,24.10
2022-10-29T14:26:30.308Z,24.00
2022-10-29T14:28:57.235Z,24.00
2022-10-29T14:31:25.269Z,24.00
2022-10-29T14:33:56.777Z,23.90
2022-10-29T14:36:39.422Z,23.80
2022-10-29T14:39:36.980Z,23.70
2022-10-29T14:44:50.685Z,23.50
2022-10-29T14:47:26.572Z,23.40
2022-10-29T14:49:54.655Z,23.20
2022-10-29T14:52:35.270Z,23.10
2022-10-29T14:55:24.801Z,23.00
2022-10-29T14:58:00.758Z,22.80
2022-10-29T15:00:30.045Z,22.70
2022-10-29T15:02:57.541Z,22.60
2022-10-29T15:05:32.678Z,22.40
2022-10-29T15:08:05.743Z,22.20
2022-10-29T15:10:32.961Z,22.00
2022-10-29T15:13:00.114Z,21.90
2022-10-29T15:15:28.666Z,21.70
2022-10-29T15:18:16.167Z,21.60
2022-10-29T15:20:43.021Z,21.50
2022-10-29T15:23:35.523Z,21.40
2022-10-29T15:26:04.299Z,21.20
2022-10-29T15:28:32.919Z,21.00
2022-10-29T15:31:03.224Z,20.90
2022-10-29T15:33:30.431Z,20.80
2022-10-29T15:35:58.671Z,20.70
2022-10-29T15:38:34.204Z,20.50
2022-10-29T15:41:19.617Z,20.50
2022-10-29T15:43:50.301Z,20.40
2022-10-29T15:46:35.877Z,20.30
2022-10-29T15:49:02.749Z,20.20
2022-10-29T15:51:30.421Z,20.10
2022-10-29T15:53:58.089Z,20.00
2022-10-29T15:56:25.106Z,19.90
2022-10-29T15:58:52.476Z,19.80
2022-10-29T16:01:19.450Z,19.70
2022-10-29T16:03:46.462Z,19.60
2022-10-29T16:06:14.212Z,19.60
2022-10-29T16:08:41.618Z,19.50
2022-10-29T16:11:12.513Z,19.40
2022-10-29T16:13:39.398Z,19.30
2022-10-29T16:16:10.402Z,16.10
2022-10-29T16:18:37.230Z,19.20
2022-10-29T16:21:05.583Z,19.00
2022-10-29T16:23:33.244Z,18.90
2022-10-29T16:26:00.086Z,18.70
2022-10-29T16:28:26.935Z,18.60
2022-10-29T16:30:54.859Z,18.60
2022-10-29T16:33:21.700Z,18.50
2022-10-29T16:35:48.648Z,18.40
2022-10-29T16:38:18.502Z,18.30
2022-10-29T16:40:45.471Z,18.20
2022-10-29T16:43:12.353Z,18.10
2022-10-29T16:45:39.212Z,18.00
2022-10-29T16:48:06.422Z,17.90
2022-10-29T16:50:34.001Z,17.80
2022-10-29T16:53:06.177Z,17.70
2022-10-29T16:55:34.726Z,17.60
2022-10-29T16:58:01.589Z,17.50
2022-10-29T17:00:31.972Z,17.50
2022-10-29T17:03:05.068Z,17.40
2022-10-29T17:05:37.597Z,17.30
2022-10-29T17:08:04.823Z,17.30
2022-10-29T17:10:31.736Z,17.20
2022-10-29T17:13:01.708Z,17.10
2022-10-29T17:15:28.614Z,17.10
2022-10-29T17:17:55.710Z,17.10
2022-10-29T17:20:22.745Z,17.10
2022-10-29T17:22:49.600Z,17.00
2022-10-29T17:25:16.554Z,17.00
2022-10-29T17:27:43.418Z,16.90
2022-10-29T17:30:10.830Z,16.90
2022-10-29T17:32:37.764Z,16.90
2022-10-29T17:35:04.937Z,16.90
2022-10-29T17:37:31.944Z,16.90
2022-10-29T17:40:03.023Z,16.90
2022-10-29T17:42:33.768Z,16.80
2022-10-29T17:45:00.661Z,16.80
2022-10-29T17:47:27.574Z,16.80
2022-10-29T17:49:54.570Z,16.80
2022-10-29T17:52:22.348Z,16.70
2022-10-29T17:54:49.288Z,16.70
2022-10-29T17:57:16.131Z,16.60
2022-10-29T17:59:42.993Z,16.50
2022-10-29T18:02:11.105Z,16.50
2022-10-29T18:04:38.239Z,16.50
2022-10-29T18:07:05.094Z,16.50
2022-10-29T18:09:32.019Z,16.40
2022-10-29T18:11:58.935Z,16.40
2022-10-29T18:14:25.870Z,16.50
2022-10-29T18:16:52.702Z,16.50
2022-10-29T18:19:19.618Z,16.50
2022-10-29T18:21:46.503Z,16.50
2022-10-29T18:24:13.378Z,16.50
2022-10-29T18:26:40.273Z,16.50
2022-10-29T18:29:09.083Z,16.50
2022-10-29T18:31:36.139Z,16.50
2022-10-29T18:34:05.313Z,16.50
2022-10-29T18:36:32.386Z,16.40
2022-10-29T18:38:59.330Z,16.30
2022-10-29T18:45:39.799Z,16.10
2022-10-29T18:48:06.875Z,17.50
2022-10-29T18:50:33.800Z,15.80
2022-10-29T18:53:00.797Z,15.80
2022-10-29T18:55:27.670Z,17.00
2022-10-29T18:57:54.458Z,15.60
2022-10-29T19:00:21.298Z,17.10
2022-10-29T19:02:48.072Z,15.40
2022-10-29T19:05:15.091Z,16.40
2022-10-29T19:07:41.919Z,15.20
2022-10-29T19:10:09.328Z,15.10
2022-10-29T19:12:36.171Z,15.10
2022-10-29T19:15:03.082Z,15.00
2022-10-29T19:17:29.939Z,14.90
2022-10-29T19:19:56.812Z,14.80
2022-10-29T19:22:23.752Z,14.70
2022-10-29T19:24:50.655Z,14.80
2022-10-29T19:27:18.072Z,14.70
2022-10-29T19:29:44.941Z,14.70
2022-10-29T19:32:11.793Z,14.60
2022-10-29T19:37:11.399Z,14.60
2022-10-29T19:39:38.458Z,15.60
2022-10-29T19:42:05.353Z,14.40
2022-10-29T19:44:32.208Z,14.40
2022-10-29T19:46:59.037Z,14.40
2022-10-29T19:49:25.957Z,14.40
2022-10-29T19:51:53.179Z,15.70
2022-10-29T19:58:40.002Z,14.20
2022-10-29T20:01:11.770Z,14.10
2022-10-29T20:03:38.620Z,14.00
2022-10-29T20:06:06.626Z,16.10
2022-10-29T20:08:33.508Z,13.90
2022-10-29T20:11:00.458Z,14.30
2022-10-29T20:13:27.494Z,13.90
2022-10-29T20:15:54.397Z,13.80
2022-10-29T20:18:21.417Z,17.00
2022-10-29T20:20:55.782Z,13.80
2022-10-29T20:23:23.430Z,14.10
2022-10-29T20:25:50.238Z,13.70
2022-10-29T20:28:17.156Z,15.30
2022-10-29T20:30:43.968Z,13.70
2022-10-29T20:33:10.790Z,15.70
2022-10-29T20:35:37.680Z,15.80
2022-10-29T20:38:04.694Z,14.90
2022-10-29T20:40:31.599Z,13.60
2022-10-29T20:42:58.453Z,13.60
2022-10-29T20:45:25.386Z,14.80
2022-10-29T20:47:52.203Z,13.60
2022-10-29T20:50:19.044Z,13.50
2022-10-29T20:52:48.822Z,13.50
2022-10-29T20:55:16.343Z,16.10
2022-10-29T20:57:43.177Z,13.50
2022-10-29T21:00:10.606Z,15.80
2022-10-29T21:02:37.549Z,13.50
2022-10-29T21:05:04.776Z,13.50
2022-10-29T21:07:31.592Z,13.50
2022-10-29T21:09:58.429Z,13.50
2022-10-29T21:12:25.294Z,13.50
2022-10-29T21:14:52.111Z,14.30
2022-10-29T21:17:21.689Z,14.90
2022-10-29T21:19:48.533Z,13.50
2022-10-29T21:22:18.776Z,16.00
2022-10-29T21:24:45.949Z,16.00
2022-10-29T21:27:12.781Z,13.70
2022-10-29T21:29:39.685Z,14.00
2022-10-29T21:32:06.671Z,13.70
2022-10-29T21:34:33.547Z,15.50
2022-10-29T21:37:00.444Z,14.20
2022-10-29T21:39:27.779Z,13.80
2022-10-29T21:41:54.735Z,15.50
2022-10-29T21:44:21.671Z,13.80
2022-10-29T21:46:48.543Z,13.80
2022-10-29T21:49:15.449Z,13.80
2022-10-29T21:51:42.484Z,13.80
2022-10-29T21:54:09.427Z,13.90
2022-10-29T21:56:36.345Z,13.80
2022-10-29T21:59:03.828Z,13.80
2022-10-29T22:01:30.916Z,13.90
2022-10-29T22:03:58.007Z,14.00
2022-10-29T22:06:25.936Z,13.90
2022-10-29T22:08:54.503Z,13.90
2022-10-29T22:11:21.479Z,13.80
2022-10-29T22:13:48.351Z,13.80
2022-10-29T22:16:15.223Z,13.80
2022-10-29T22:18:42.220Z,13.80
2022-10-29T22:21:15.408Z,13.80
2022-10-29T22:23:49.940Z,13.70
2022-10-29T22:26:18.313Z,13.70
2022-10-29T22:28:47.150Z,13.70
2022-10-29T22:31:15.086Z,13.70
2022-10-29T22:33:42.752Z,13.70
2022-10-29T22:36:17.092Z,13.70
2022-10-29T22:38:44.049Z,13.80
2022-10-29T22:41:12.872Z,13.80
2022-10-29T22:43:39.809Z,13.90
2022-10-29T22:46:07.376Z,13.80
2022-10-29T22:48:34.335Z,13.80
2022-10-29T22:51:05.930Z,13.80
2022-10-29T22:53:33.089Z,13.70
2022-10-29T22:56:00.770Z,13.70
2022-10-29T22:58:27.916Z,13.70
2022-10-29T23:01:19.580Z,13.60
2022-10-29T23:03:46.604Z,13.60
2022-10-29T23:06:15.260Z,13.60
2022-10-29T23:08:44.203Z,13.60
2022-10-29T23:11:21.500Z,13.50
2022-10-29T23:13:49.351Z,13.50
2022-10-29T23:16:16.433Z,13.40
2022-10-29T23:18:43.329Z,13.30
2022-10-29T23:21:10.177Z,13.30
2022-10-29T23:23:37.104Z,13.30
2022-10-29T23:26:04.318Z,13.20
2022-10-29T23:28:35.752Z,13.10
2022-10-29T23:31:03.568Z,13.70
2022-10-29T23:33:30.858Z,13.10
2022-10-29T23:36:04.849Z,13.10
2022-10-29T23:38:32.048Z,13.00
2022-10-29T23:40:58.964Z,13.00
2022-10-29T23:43:25.858Z,13.00
2022-10-29T23:45:52.795Z,13.00
2022-10-29T23:48:19.735Z,13.00
2022-10-29T23:50:46.658Z,15.20
2022-10-29T23:53:13.641Z,12.90
2022-10-29T23:55:42.448Z,13.30
2022-10-29T23:58:09.457Z,12.90
